Date,TemperatureHighF,TemperatureAvgF,TemperatureLowF,DewpointHighF,DewpointAvgF,DewpointLowF,HumidityHigh,HumidityAvg,HumidityLow,PressureMaxIn,PressureMinIn,WindSpeedMaxMPH,WindSpeedAvgMPH,GustSpeedMaxMPH,PrecipitationSumIn
2013-3-1,44,38,35,32,30,27,84,74,60,0.00,40.00,5,3,11,0.00
2013-3-2,42,36,30,30,26,18,82,69,50,0.00,40.00,5,3,18,0.00
2013-3-3,35,30,25,21,17,15,71,59,48,0.00,40.00,5,3,11,0.00
2013-3-4,49,36,21,25,19,16,84,55,31,0.00,40.00,5,3,8,0.00
2013-3-5,47,40,35,47,36,25,100,85,53,0.00,40.00,9,3,27,1.98
2013-3-6,35,32,29,30,27,20,98,83,62,0.00,40.00,6,4,19,0.14
2013-3-7,37,34,32,28,27,25,84,74,64,0.00,40.00,4,2,8,0.03
2013-3-8,52,38,25,27,25,23,93,62,37,0.00,40.00,7,3,14,0.00
2013-3-9,65,46,29,38,29,25,88,57,25,0.00,40.00,6,2,9,0.00
2013-3-10,72,57,43,39,35,30,83,48,23,0.00,40.00,8,4,17,0.00
2013-3-11,63,57,51,54,45,32,100,68,36,0.00,40.00,8,4,25,0.60
2013-3-12,53,44,36,51,35,31,100,74,44,0.00,40.00,5,3,12,0.60
2013-3-13,43,38,31,33,23,14,90,57,39,0.00,40.00,9,4,20,0.01
2013-3-14,47,36,27,19,16,13,63,45,25,0.00,40.00,5,4,16,0.00
2013-3-15,67,48,30,43,32,19,85,55,35,0.00,40.00,6,2,14,0.00
2013-3-16,76,64,49,48,44,40,81,49,36,0.00,40.00,8,5,22,0.00
2013-3-17,74,61,53,50,48,42,86,65,34,0.00,40.00,5,3,14,0.00
2013-3-18,61,51,45,53,48,44,100,89,61,0.00,40.00,10,3,17,1.18
2013-3-19,59,50,39,51,29,9,100,52,18,0.00,40.00,7,4,16,0.27
2013-3-20,56,44,31,27,15,9,65,34,18,0.00,40.00,6,4,20,0.01
2013-3-21,41,33,25,20,10,7,52,39,26,0.00,40.00,7,4,17,0.00
2013-3-22,44,34,21,26,16,12,79,50,29,0.00,40.00,5,2,9,0.00
2013-3-23,53,45,39,38,32,24,83,61,50,0.00,40.00,4,2,9,0.00
2013-3-24,59,48,44,52,45,36,100,88,61,0.00,40.00,9,5,15,1.29
2013-3-25,46,35,32,43,30,26,97,82,65,0.00,40.00,9,7,24,0.54
2013-3-26,41,34,32,31,29,26,91,81,63,0.00,40.00,5,4,16,0.05
2013-3-27,46,38,34,30,26,21,85,65,40,0.00,40.00,5,3,12,0.01
2013-3-28,55,49,35,27,24,21,73,39,28,0.00,40.00,4,3,11,0.00
2013-3-29,51,39,28,40,32,24,95,78,35,0.00,40.00,6,2,12,0.09
2013-3-30,60,49,41,45,42,39,97,78,54,0.00,40.00,5,2,8,0.02
2013-3-31,62,54,48,55,50,-100,100,92,70,0.00,40.00,7,2,17,0.52